Terminal Aerodrome Forecast
Issued by NWS Des Moines, IA

Home | Current Version | Previous Version | Text Only | Print | Product List | Glossary On
Versions: 1 2 3 4 5 6 7 8 9 10 11 12 13 14 15 16 17 18 19 20 21 22 23 24 25
000
FTUS43 KDMX 180539
TAFALO
TAF
KALO 180539Z 1806/1906 05004KT P6SM BKN080 OVC100
     FM181500 11011KT P6SM BKN060
     FM182300 11010KT P6SM VCSH SCT009 BKN025=

USA.gov is the U.S. government's official web portal to all federal, state and local government web resources and services.